Time;durP1;ratioP1;P1;durP2;ratioP2;P2;SDS_P1;SDS_P2;PMS_P1;PMS_P2;Temp;Humidity;BMP_temperature;BMP_pressure;BME280_temperature;BME280_humidity;BME280_pressure;Samples;Min_cycle;Max_cycle;Signal;HPM_P1;HPM_P2
2022/01/02 00:00:33;;;;;;;88.93;47.78;;;;;;;8.70;100.00;99852.44;2086025;28;20263;-69
2022/01/02 00:01:36;;;;;;;92.45;47.30;;;;;;;8.69;100.00;99848.19;2086207;28;20240;-69
2022/01/02 00:02:38;;;;;;;96.53;46.58;;;;;;;8.68;100.00;99851.88;2086034;28;20227;-70
2022/01/02 00:03:44;;;;;;;85.97;46.65;;;;;;;8.71;100.00;99857.50;2086055;28;20646;-69
2022/01/02 00:04:49;;;;;;;95.70;48.80;;;;;;;8.66;100.00;99849.50;2078502;28;20277;-69
2022/01/02 00:05:52;;;;;;;91.03;47.80;;;;;;;8.71;100.00;99851.38;2086408;28;20238;-69
2022/01/02 00:06:56;;;;;;;91.88;49.50;;;;;;;8.68;100.00;99850.03;2086710;28;20239;-69
2022/01/02 00:08:01;;;;;;;97.18;48.38;;;;;;;8.72;100.00;99852.97;2086028;28;20226;-69
2022/01/02 00:09:04;;;;;;;97.78;50.10;;;;;;;8.71;100.00;99856.69;2078680;28;20295;-69
2022/01/02 00:10:07;;;;;;;89.72;47.20;;;;;;;8.68;100.00;99849.22;2086294;28;20253;-69
2022/01/02 00:11:11;;;;;;;90.72;47.15;;;;;;;8.68;100.00;99851.88;2086604;28;20227;-69
2022/01/02 00:12:14;;;;;;;91.80;47.80;;;;;;;8.64;100.00;99848.16;2085993;28;21854;-69
2022/01/02 00:13:27;;;;;;;96.43;48.95;;;;;;;8.64;100.00;99843.66;2078285;28;20651;-69
2022/01/02 00:14:33;;;;;;;97.65;48.20;;;;;;;8.63;100.00;99846.56;2086042;28;20269;-69
2022/01/02 00:15:33;;;;;;;102.22;48.38;;;;;;;8.64;100.00;99851.63;2086989;28;20686;-68
2022/01/02 00:16:37;;;;;;;87.50;46.63;;;;;;;8.63;100.00;99847.38;2087052;28;20612;-70
2022/01/02 00:17:39;;;;;;;88.00;47.95;;;;;;;8.64;100.00;99842.84;2086570;28;20310;-70
2022/01/02 00:18:48;;;;;;;93.45;46.72;;;;;;;8.68;100.00;99842.03;2085986;28;20302;-69
2022/01/02 00:19:54;;;;;;;99.57;47.20;;;;;;;8.67;100.00;99839.66;2086361;28;20231;-69
2022/01/02 00:20:56;;;;;;;95.43;48.47;;;;;;;8.65;100.00;99839.13;2085706;28;20230;-69
2022/01/02 00:22:02;;;;;;;83.45;46.15;;;;;;;8.66;100.00;99846.84;2086275;28;20259;-69
2022/01/02 00:23:06;;;;;;;77.10;45.67;;;;;;;8.62;100.00;99831.69;2086209;28;20226;-69
2022/01/02 00:24:14;;;;;;;83.68;46.15;;;;;;;8.69;100.00;99830.38;2085711;28;20272;-70
2022/01/02 00:25:25;;;;;;;86.78;46.45;;;;;;;8.71;100.00;99830.09;2086098;28;20226;-69
2022/01/02 00:26:35;;;;;;;85.25;44.95;;;;;;;8.67;100.00;99826.34;2078805;28;20219;-69
2022/01/02 00:27:37;;;;;;;87.13;44.67;;;;;;;8.65;100.00;99825.81;2079091;28;20251;-69
2022/01/02 00:28:37;;;;;;;89.70;46.65;;;;;;;8.65;100.00;99825.81;2077377;28;20294;-69
2022/01/02 00:29:41;;;;;;;84.93;45.87;;;;;;;8.68;100.00;99822.63;2086387;28;20262;-70
2022/01/02 00:30:44;;;;;;;90.18;46.88;;;;;;;8.65;100.00;99825.81;2088434;28;20236;-69
2022/01/02 00:31:47;;;;;;;81.78;45.05;;;;;;;8.64;100.00;99832.22;2087521;28;20226;-69
2022/01/02 00:32:48;;;;;;;80.15;43.67;;;;;;;8.62;100.00;99832.47;2087765;28;20222;-69
2022/01/02 00:33:49;;;;;;;82.30;45.97;;;;;;;8.59;100.00;99835.66;2087593;28;20278;-69
2022/01/02 00:34:52;;;;;;;83.40;45.97;;;;;;;8.64;100.00;99837.53;2087737;28;20222;-69
2022/01/02 00:35:53;;;;;;;87.65;46.42;;;;;;;8.66;100.00;99833.53;2088107;28;20230;-69
2022/01/02 00:36:55;;;;;;;79.40;45.80;;;;;;;8.64;100.00;99837.53;2088425;28;20693;-69
2022/01/02 00:37:58;;;;;;;86.68;47.60;;;;;;;8.68;100.00;99835.91;2088311;28;20226;-69
2022/01/02 00:39:01;;;;;;;84.53;44.10;;;;;;;8.64;100.00;99838.31;2087470;28;20338;-69
2022/01/02 00:40:04;;;;;;;81.38;45.63;;;;;;;8.70;100.00;99839.94;2079979;28;20223;-68
2022/01/02 00:41:06;;;;;;;86.90;45.20;;;;;;;8.66;100.00;99832.72;2087706;28;20596;-69
2022/01/02 00:42:09;;;;;;;79.15;44.30;;;;;;;8.68;100.00;99835.91;2088398;28;20229;-69
2022/01/02 00:43:12;;;;;;;84.13;44.92;;;;;;;8.66;100.00;99838.06;2088019;28;20701;-69
2022/01/02 00:44:21;;;;;;;80.63;44.22;;;;;;;8.66;100.00;99832.72;2088356;28;20249;-69
2022/01/02 00:45:28;;;;;;;81.53;45.05;;;;;;;8.68;100.00;99835.91;2088046;28;20239;-70
2022/01/02 00:46:31;;;;;;;79.97;42.65;;;;;;;8.66;100.00;99836.19;2088393;28;20250;-68
2022/01/02 00:47:44;;;;;;;83.47;43.05;;;;;;;8.66;100.00;99840.72;2087542;28;20218;-70
2022/01/02 00:48:45;;;;;;;82.25;44.95;;;;;;;8.67;100.00;99831.66;2087321;28;20221;-69
2022/01/02 00:50:00;;;;;;;75.00;42.90;;;;;;;8.69;100.00;99832.22;2087493;28;20298;-69
2022/01/02 00:51:03;;;;;;;77.22;43.80;;;;;;;8.66;100.00;99838.06;2087481;28;20586;-69
2022/01/02 00:52:08;;;;;;;80.05;44.67;;;;;;;8.70;100.00;99831.16;2087403;28;20648;-69
2022/01/02 00:53:13;;;;;;;78.20;42.15;;;;;;;8.70;100.00;99834.63;2079521;28;20310;-69
2022/01/02 00:54:16;;;;;;;79.97;42.25;;;;;;;8.70;100.00;99834.63;2079644;28;20689;-70
2022/01/02 00:55:20;;;;;;;75.00;43.50;;;;;;;8.68;100.00;99836.72;2087592;28;20574;-69
2022/01/02 00:56:23;;;;;;;78.32;43.38;;;;;;;8.69;100.00;99842.88;2087776;28;20231;-70
2022/01/02 00:57:32;;;;;;;79.97;42.03;;;;;;;8.66;100.00;99836.19;2087087;28;20305;-69
2022/01/02 00:58:36;;;;;;;81.13;45.30;;;;;;;8.71;100.00;99838.06;2080315;28;20288;-70
2022/01/02 00:59:47;;;;;;;75.05;43.03;;;;;;;8.64;100.00;99830.34;2087273;28;20223;-71
2022/01/02 01:00:50;;;;;;;82.03;44.05;;;;;;;8.65;100.00;99836.47;2087515;28;20721;-70
2022/01/02 01:01:57;;;;;;;78.40;44.70;;;;;;;8.67;100.00;99837.00;2087459;28;20253;-69
2022/01/02 01:03:01;;;;;;;76.78;43.95;;;;;;;8.70;100.00;99833.81;2079591;28;20622;-69
2022/01/02 01:04:03;;;;;;;82.85;44.15;;;;;;;8.69;100.00;99834.88;2079528;28;20215;-69
2022/01/02 01:05:07;;;;;;;79.93;43.83;;;;;;;8.68;100.00;99830.59;2079150;28;20230;-69
2022/01/02 01:06:11;;;;;;;82.50;44.42;;;;;;;8.69;100.00;99838.34;2078904;28;20231;-70
2022/01/02 01:07:14;;;;;;;74.57;43.42;;;;;;;8.70;100.00;99839.13;2087565;28;20689;-70
2022/01/02 01:08:17;;;;;;;82.47;46.55;;;;;;;8.70;100.00;99828.50;2087192;28;20233;-70
2022/01/02 01:09:18;;;;;;;79.30;44.83;;;;;;;8.72;100.00;99829.03;2087466;28;20225;-69
2022/01/02 01:10:22;;;;;;;79.47;44.97;;;;;;;8.71;100.00;99830.09;2087213;28;20793;-69
2022/01/02 01:11:25;;;;;;;83.13;45.22;;;;;;;8.69;100.00;99833.03;2078782;28;20223;-70
2022/01/02 01:12:26;;;;;;;78.05;42.58;;;;;;;8.73;100.00;99833.28;2087387;28;20226;-70
2022/01/02 01:13:33;;;;;;;83.85;47.70;;;;;;;8.69;100.00;99829.56;2087425;28;20221;-69
2022/01/02 01:14:34;;;;;;;85.97;44.38;;;;;;;8.69;100.00;99821.59;2079406;28;20227;-69
2022/01/02 01:15:39;;;;;;;82.10;43.40;;;;;;;8.65;100.00;99820.50;2086922;28;20227;-72
2022/01/02 01:16:40;;;;;;;83.30;45.08;;;;;;;8.70;100.00;99817.84;2079338;28;20222;-70
2022/01/02 01:17:54;;;;;;;84.82;44.78;;;;;;;8.66;100.00;99825.56;2087341;28;20260;-70
2022/01/02 01:18:57;;;;;;;79.97;43.95;;;;;;;8.70;100.00;99815.19;2078943;28;20244;-70
2022/01/02 01:19:59;;;;;;;85.20;46.70;;;;;;;8.71;100.00;99814.13;2087301;28;20269;-69
2022/01/02 01:21:02;;;;;;;82.55;44.03;;;;;;;8.69;100.00;99813.59;2087369;28;20782;-69
2022/01/02 01:22:03;;;;;;;80.20;43.35;;;;;;;8.70;100.00;99818.66;2087860;28;20219;-69
2022/01/02 01:23:05;;;;;;;79.20;45.85;;;;;;;8.69;100.00;99810.94;2088083;28;20740;-69
2022/01/02 01:24:07;;;;;;;84.18;45.40;;;;;;;8.69;100.00;99810.94;2087158;28;20230;-69
2022/01/02 01:25:12;;;;;;;80.22;44.70;;;;;;;8.67;100.00;99813.03;2078593;28;20258;-70
2022/01/02 01:26:17;;;;;;;84.45;43.90;;;;;;;8.64;100.00;99806.41;2087361;28;20222;-71
2022/01/02 01:27:20;;;;;;;82.00;44.47;;;;;;;8.69;100.00;99810.94;2087975;28;20302;-70
2022/01/02 01:28:21;;;;;;;77.40;44.83;;;;;;;8.65;100.00;99821.28;2087242;28;20226;-69
2022/01/02 01:29:23;;;;;;;82.90;44.33;;;;;;;8.66;100.00;99812.25;2087015;28;20297;-71
2022/01/02 01:30:28;;;;;;;76.45;44.40;;;;;;;8.66;100.00;99808.78;2088022;28;20617;-70
2022/01/02 01:31:29;;;;;;;76.57;43.63;;;;;;;8.68;100.00;99810.13;2087103;28;20231;-69
2022/01/02 01:32:30;;;;;;;88.60;45.63;;;;;;;8.65;100.00;99799.22;2078727;28;20224;-70
2022/01/02 01:33:31;;;;;;;91.78;45.53;;;;;;;8.65;100.00;99807.19;2079047;28;20220;-69
2022/01/02 01:34:33;;;;;;;81.53;44.23;;;;;;;8.65;100.00;99794.69;2087447;28;20218;-69
2022/01/02 01:35:34;;;;;;;80.07;42.78;;;;;;;8.72;100.00;99799.75;2087969;28;20677;-69
2022/01/02 01:36:36;;;;;;;79.78;44.13;;;;;;;8.70;100.00;99807.22;2087230;28;20226;-69
2022/01/02 01:37:38;;;;;;;79.00;44.35;;;;;;;8.70;100.00;99808.00;2086719;28;20238;-70
2022/01/02 01:38:38;;;;;;;84.40;43.13;;;;;;;8.66;100.00;99806.13;2078942;28;20223;-69
2022/01/02 01:39:41;;;;;;;81.13;43.97;;;;;;;8.67;100.00;99802.41;2078740;28;20223;-69
2022/01/02 01:40:46;;;;;;;79.47;43.47;;;;;;;8.66;100.00;99803.47;2087186;28;20242;-70
2022/01/02 01:41:49;;;;;;;85.70;43.50;;;;;;;8.65;100.00;99800.03;2078642;28;20224;-69
2022/01/02 01:43:00;;;;;;;79.15;43.40;;;;;;;8.66;100.00;99803.47;2087104;28;20720;-69
2022/01/02 01:44:26;;;;;;;82.40;43.85;;;;;;;8.66;100.00;99796.28;2080744;28;20223;-69
2022/01/02 01:45:31;;;;;;;78.57;42.60;;;;;;;8.70;100.00;99800.03;2080766;28;20238;-69
2022/01/02 01:46:35;;;;;;;84.13;43.75;;;;;;;8.65;100.00;99794.69;2079590;28;20666;-69
2022/01/02 01:47:39;;;;;;;77.20;43.22;;;;;;;8.64;100.00;99793.09;2087180;28;20280;-70
2022/01/02 01:48:50;;;;;;;81.78;43.08;;;;;;;8.69;100.00;99802.97;2086927;28;20230;-70
2022/01/02 01:49:52;;;;;;;75.80;42.05;;;;;;;8.68;100.00;99794.16;2079957;28;20223;-69
2022/01/02 01:50:53;;;;;;;84.15;43.80;;;;;;;8.66;100.00;99790.16;2078450;28;20227;-69
2022/01/02 01:51:58;;;;;;;78.93;42.25;;;;;;;8.66;100.00;99795.50;2079139;28;22706;-69
2022/01/02 01:53:00;;;;;;;77.53;42.90;;;;;;;8.65;100.00;99788.59;2079045;28;20761;-70
2022/01/02 01:54:05;;;;;;;81.35;43.47;;;;;;;8.68;100.00;99788.03;2078782;28;20251;-69
2022/01/02 01:55:12;;;;;;;78.82;44.13;;;;;;;8.68;100.00;99788.84;2087187;28;20222;-69
2022/01/02 01:56:12;;;;;;;78.07;42.00;;;;;;;8.70;100.00;99791.25;2087414;28;20757;-69
2022/01/02 01:57:14;;;;;;;79.70;43.97;;;;;;;8.68;100.00;99780.84;2087054;28;20324;-69
2022/01/02 01:58:15;;;;;;;81.93;42.17;;;;;;;8.67;100.00;99786.44;2078760;28;20223;-70
2022/01/02 01:59:20;;;;;;;78.78;41.75;;;;;;;8.64;100.00;99777.16;2086943;28;20751;-69
2022/01/02 02:00:22;;;;;;;76.53;43.40;;;;;;;8.64;100.00;99781.66;2078573;28;20227;-71
2022/01/02 02:01:30;;;;;;;79.55;42.50;;;;;;;8.65;100.00;99777.94;2079566;28;20286;-69
2022/01/02 02:02:31;;;;;;;77.45;42.40;;;;;;;8.68;100.00;99777.41;2087164;28;20222;-69
2022/01/02 02:03:33;;;;;;;75.88;42.50;;;;;;;8.65;100.00;99767.31;2086817;28;20713;-70
2022/01/02 02:04:34;;;;;;;76.88;40.85;;;;;;;8.64;100.00;99765.72;2078755;28;20226;-69
2022/01/02 02:05:36;;;;;;;79.87;41.73;;;;;;;8.63;100.00;99769.44;2086955;28;20245;-69
2022/01/02 02:06:37;;;;;;;79.72;42.85;;;;;;;8.61;100.00;99768.91;2087115;28;20223;-70
2022/01/02 02:07:40;;;;;;;69.47;42.00;;;;;;;8.64;100.00;99776.34;2078260;28;20269;-69
2022/01/02 02:08:43;;;;;;;77.22;42.35;;;;;;;8.63;100.00;99774.75;2078682;28;20241;-69
2022/01/02 02:09:59;;;;;;;72.03;41.05;;;;;;;8.61;100.00;99776.88;2078734;28;20643;-69
2022/01/02 02:11:03;;;;;;;74.50;41.13;;;;;;;8.61;100.00;99776.88;2080480;28;20219;-70
2022/01/02 02:12:07;;;;;;;71.03;41.22;;;;;;;8.61;100.00;99776.88;2087855;28;20675;-69
2022/01/02 02:13:14;;;;;;;81.70;43.50;;;;;;;8.61;100.00;99777.69;2086494;28;20266;-69
2022/01/02 02:14:22;;;;;;;71.60;41.92;;;;;;;8.62;100.00;99778.47;2079411;28;20223;-70
2022/01/02 02:15:27;;;;;;;79.00;41.35;;;;;;;8.63;100.00;99774.75;2086719;28;20230;-69
2022/01/02 02:16:29;;;;;;;74.25;41.40;;;;;;;8.65;100.00;99775.28;2086946;28;20603;-69
2022/01/02 02:17:32;;;;;;;73.57;40.75;;;;;;;8.65;100.00;99773.41;2086982;28;20256;-69
2022/01/02 02:18:35;;;;;;;66.82;41.03;;;;;;;8.68;100.00;99778.19;2086960;28;20218;-70
2022/01/02 02:19:36;;;;;;;76.03;40.80;;;;;;;8.67;100.00;99773.16;2078851;28;20238;-69
2022/01/02 02:20:38;;;;;;;69.70;40.92;;;;;;;8.66;100.00;99775.00;2078192;28;20310;-70
2022/01/02 02:21:47;;;;;;;81.30;41.38;;;;;;;8.65;100.00;99778.72;2079681;28;20219;-69
2022/01/02 02:22:52;;;;;;;74.80;42.60;;;;;;;8.65;100.00;99772.63;2078593;28;20223;-69
2022/01/02 02:23:54;;;;;;;72.82;41.17;;;;;;;8.63;100.00;99767.56;2078495;28;20231;-69
2022/01/02 02:24:55;;;;;;;73.57;40.25;;;;;;;8.62;100.00;99773.16;2086512;28;20235;-69
2022/01/02 02:25:57;;;;;;;80.60;43.33;;;;;;;8.61;100.00;99774.22;2078447;28;20247;-69
2022/01/02 02:26:57;;;;;;;73.07;39.65;;;;;;;8.61;100.00;99767.03;2086587;28;20616;-69
2022/01/02 02:28:01;;;;;;;70.10;38.93;;;;;;;8.62;100.00;99767.84;2078595;28;20219;-69
2022/01/02 02:29:03;;;;;;;74.85;41.17;;;;;;;8.65;100.00;99762.78;2086681;28;20372;-69
2022/01/02 02:30:08;;;;;;;76.55;41.08;;;;;;;8.66;100.00;99759.06;2086835;28;20311;-69
2022/01/02 02:31:11;;;;;;;79.30;40.88;;;;;;;8.66;100.00;99763.56;2086267;28;20584;-69
2022/01/02 02:32:11;;;;;;;71.30;41.45;;;;;;;8.64;100.00;99755.88;2078607;28;20276;-70
2022/01/02 02:33:15;;;;;;;73.15;40.75;;;;;;;8.63;100.00;99759.59;2078538;28;20315;-69
2022/01/02 02:34:17;;;;;;;74.47;41.88;;;;;;;8.61;100.00;99751.09;2079001;28;20247;-69
2022/01/02 02:35:18;;;;;;;73.30;42.13;;;;;;;8.60;100.00;99748.66;2086589;28;20229;-69
2022/01/02 02:36:23;;;;;;;76.93;42.30;;;;;;;8.60;100.00;99746.00;2078518;28;20227;-69
2022/01/02 02:37:25;;;;;;;71.05;39.30;;;;;;;8.62;100.00;99746.56;2078386;28;20709;-70
2022/01/02 02:38:27;;;;;;;71.32;39.92;;;;;;;8.62;100.00;99750.03;2078632;28;20250;-69
2022/01/02 02:39:35;;;;;;;68.88;39.15;;;;;;;8.62;100.00;99746.56;2086843;28;20272;-69
2022/01/02 02:40:38;;;;;;;67.47;39.20;;;;;;;8.62;100.00;99749.22;2087422;28;20242;-70
2022/01/02 02:41:42;;;;;;;74.47;40.35;;;;;;;8.61;100.00;99744.97;2086208;28;20717;-69
2022/01/02 02:42:48;;;;;;;68.88;38.33;;;;;;;8.61;100.00;99747.63;2078751;28;20689;-69
2022/01/02 02:43:57;;;;;;;68.50;38.67;;;;;;;8.65;100.00;99746.03;2086813;28;20304;-69
2022/01/02 02:48:57;;;;;;;68.13;40.47;;;;;;;8.62;100.00;99749.22;2086226;28;20252;-69
2022/01/02 02:49:10;;;;;;;72.60;39.08;;;;;;;8.59;100.00;99734.56;2080141;28;20258;-69
2022/01/02 02:50:12;;;;;;;65.07;40.13;;;;;;;8.62;100.00;99731.41;2078244;28;20302;-69
2022/01/02 02:51:18;;;;;;;74.97;40.53;;;;;;;8.60;100.00;99728.22;2086626;28;20222;-70
2022/01/02 02:52:34;;;;;;;76.07;40.83;;;;;;;8.61;100.00;99729.00;2087303;28;20223;-69
2022/01/02 02:53:38;;;;;;;72.80;37.83;;;;;;;8.59;100.00;99731.13;2086203;28;20309;-70
2022/01/02 02:54:42;;;;;;;70.95;38.72;;;;;;;8.62;100.00;99727.94;2078309;28;20231;-69
2022/01/02 02:55:46;;;;;;;72.68;38.53;;;;;;;8.59;100.00;99723.94;2086537;28;20218;-70
2022/01/02 02:56:56;;;;;;;73.35;39.45;;;;;;;8.61;100.00;99734.34;2086492;28;20218;-70
2022/01/02 02:57:58;;;;;;;72.45;38.25;;;;;;;8.62;100.00;99731.41;2079126;28;22085;-69
2022/01/02 02:59:06;;;;;;;72.55;39.88;;;;;;;8.63;100.00;99734.84;2078543;28;20233;-69
2022/01/02 03:00:07;;;;;;;70.82;39.15;;;;;;;8.65;100.00;99727.41;2078698;28;20223;-72
2022/01/02 03:01:11;;;;;;;75.05;40.95;;;;;;;8.64;100.00;99725.81;2078270;28;20707;-69
2022/01/02 03:02:13;;;;;;;72.95;40.53;;;;;;;8.63;100.00;99726.88;2086567;28;20231;-69
2022/01/02 03:03:20;;;;;;;73.05;40.67;;;;;;;8.63;100.00;99734.84;2086425;28;20246;-70
2022/01/02 03:04:23;;;;;;;77.13;40.30;;;;;;;8.61;100.00;99727.16;2086621;28;20223;-69
2022/01/02 03:05:23;;;;;;;65.18;39.53;;;;;;;8.63;100.00;99737.50;2085958;28;20264;-69
2022/01/02 03:06:25;;;;;;;71.10;37.20;;;;;;;8.64;100.00;99733.78;2078522;28;20281;-69
2022/01/02 03:07:28;;;;;;;70.57;38.67;;;;;;;8.62;100.00;99728.75;2086419;28;20766;-69
2022/01/02 03:08:29;;;;;;;73.30;39.05;;;;;;;8.62;100.00;99731.41;2086417;28;20261;-70
2022/01/02 03:09:38;;;;;;;71.60;38.35;;;;;;;8.63;100.00;99733.00;2086591;28;20621;-69
2022/01/02 03:10:40;;;;;;;68.68;38.35;;;;;;;8.65;100.00;99717.56;2086022;28;20634;-69
2022/01/02 03:11:44;;;;;;;72.30;39.50;;;;;;;8.63;100.00;99710.91;2086434;28;20222;-70
2022/01/02 03:12:45;;;;;;;69.45;38.15;;;;;;;8.65;100.00;99719.41;2078840;28;20242;-70
2022/01/02 03:13:49;;;;;;;70.23;37.40;;;;;;;8.63;100.00;99714.38;2086261;28;20233;-70
2022/01/02 03:14:51;;;;;;;68.32;38.58;;;;;;;8.64;100.00;99715.16;2078435;28;20666;-70
2022/01/02 03:15:53;;;;;;;70.20;38.67;;;;;;;8.62;100.00;99714.66;2077741;28;20315;-70
2022/01/02 03:16:55;;;;;;;67.35;38.53;;;;;;;8.60;100.00;99716.75;2077888;28;20239;-69
2022/01/02 03:17:57;;;;;;;74.72;39.88;;;;;;;8.60;100.00;99714.91;2086277;28;20223;-69
2022/01/02 03:19:01;;;;;;;78.55;39.38;;;;;;;8.60;100.00;99720.22;2078334;28;20318;-69
2022/01/02 03:20:02;;;;;;;62.35;37.40;;;;;;;8.60;100.00;99720.22;2086642;28;20227;-70
2022/01/02 03:21:04;;;;;;;65.40;38.50;;;;;;;8.61;100.00;99710.38;2086426;28;20230;-69
2022/01/02 03:22:07;;;;;;;65.22;37.80;;;;;;;8.61;100.00;99711.19;2078278;28;20594;-69
2022/01/02 03:23:11;;;;;;;66.07;38.00;;;;;;;8.60;100.00;99711.44;2085920;28;20724;-70
2022/01/02 03:24:12;;;;;;;66.60;37.05;;;;;;;8.58;100.00;99709.03;2086451;28;20227;-69
2022/01/02 03:25:14;;;;;;;64.88;38.55;;;;;;;8.61;100.00;99713.06;2087239;28;20221;-69
2022/01/02 03:26:17;;;;;;;68.32;38.30;;;;;;;8.58;100.00;99700.25;2086412;28;20305;-70
2022/01/02 03:27:18;;;;;;;65.05;36.85;;;;;;;8.57;100.00;99699.47;2078026;28;20229;-69
2022/01/02 03:28:19;;;;;;;66.10;38.03;;;;;;;8.59;100.00;99691.22;2086514;28;20245;-69
2022/01/02 03:29:22;;;;;;;62.63;36.92;;;;;;;8.59;100.00;99693.88;2087106;28;20226;-69
2022/01/02 03:30:24;;;;;;;67.22;38.85;;;;;;;8.59;100.00;99700.00;2085997;28;20227;-70
2022/01/02 03:31:26;;;;;;;65.80;37.30;;;;;;;8.61;100.00;99699.75;2086134;28;20305;-70
2022/01/02 03:32:28;;;;;;;61.30;36.78;;;;;;;8.56;100.00;99702.41;2078283;28;20310;-69
2022/01/02 03:33:30;;;;;;;69.60;37.33;;;;;;;8.55;100.00;99692.84;2078307;28;20700;-69
2022/01/02 03:34:31;;;;;;;64.82;38.10;;;;;;;8.48;100.00;99688.56;2086422;28;20221;-69
2022/01/02 03:35:33;;;;;;;65.77;37.87;;;;;;;8.50;100.00;99685.63;2087259;28;20250;-70
2022/01/02 03:36:34;;;;;;;59.10;36.58;;;;;;;8.50;100.00;99686.44;2086384;28;20579;-69
2022/01/02 03:37:35;;;;;;;67.50;38.47;;;;;;;8.52;100.00;99683.53;2078125;28;20219;-69
2022/01/02 03:38:39;;;;;;;65.40;36.00;;;;;;;8.52;100.00;99678.22;2078091;28;20277;-69
2022/01/02 03:39:39;;;;;;;59.95;36.33;;;;;;;8.50;100.00;99673.13;2085998;28;20955;-69
2022/01/02 03:40:41;;;;;;;71.10;38.57;;;;;;;8.46;100.00;99674.75;2086327;28;20639;-69
2022/01/02 03:41:42;;;;;;;62.47;36.78;;;;;;;8.47;100.00;99668.38;2086387;28;20234;-69
2022/01/02 03:42:44;;;;;;;64.57;37.40;;;;;;;8.43;100.00;99680.59;2086329;28;20310;-69
2022/01/02 03:43:46;;;;;;;58.33;36.53;;;;;;;8.42;100.00;99673.66;2078269;28;20228;-69
2022/01/02 03:44:46;;;;;;;63.53;37.05;;;;;;;8.43;100.00;99677.94;2086470;28;20244;-69
2022/01/02 03:45:48;;;;;;;57.93;34.43;;;;;;;8.42;100.00;99673.66;2086632;28;20214;-70
2022/01/02 03:46:49;;;;;;;56.72;35.80;;;;;;;8.41;100.00;99676.59;2086506;28;20227;-70
2022/01/02 03:47:51;;;;;;;62.07;36.23;;;;;;;8.44;100.00;99673.44;2086471;28;20261;-70
2022/01/02 03:48:52;;;;;;;58.40;35.80;;;;;;;8.38;100.00;99672.63;2085873;28;20218;-70
2022/01/02 03:49:57;;;;;;;64.30;37.57;;;;;;;8.43;100.00;99674.50;2086332;28;20306;-70
2022/01/02 03:50:58;;;;;;;62.58;36.05;;;;;;;8.40;100.00;99670.47;2086221;28;20346;-69
2022/01/02 03:51:59;;;;;;;61.63;37.03;;;;;;;8.41;100.00;99672.06;2086210;28;20226;-70
2022/01/02 03:53:00;;;;;;;60.45;36.28;;;;;;;8.42;100.00;99662.25;2086321;28;20754;-69
2022/01/02 03:54:03;;;;;;;57.00;34.40;;;;;;;8.43;100.00;99666.50;2086403;28;20635;-69
2022/01/02 03:55:06;;;;;;;56.80;35.67;;;;;;;8.41;100.00;99661.44;2087181;28;20287;-69
2022/01/02 03:56:07;;;;;;;56.10;34.03;;;;;;;8.41;100.00;99661.44;2085827;28;20222;-73
2022/01/02 03:57:08;;;;;;;61.97;34.42;;;;;;;8.41;100.00;99671.28;2077965;28;20274;-69
2022/01/02 03:58:10;;;;;;;58.63;34.37;;;;;;;8.39;100.00;99676.06;2086287;28;20223;-69
2022/01/02 03:59:12;;;;;;;56.53;34.22;;;;;;;8.39;100.00;99679.53;2086182;28;20286;-70
2022/01/02 04:00:18;;;;;;;56.97;35.97;;;;;;;8.43;100.00;99683.28;2086348;28;20348;-69
2022/01/02 04:01:19;;;;;;;59.30;35.28;;;;;;;8.44;100.00;99676.88;2086276;28;20729;-69
2022/01/02 04:02:21;;;;;;;61.47;34.70;;;;;;;8.44;100.00;99682.19;2086495;28;20226;-70
2022/01/02 04:03:22;;;;;;;56.05;34.35;;;;;;;8.43;100.00;99677.16;2085821;28;20692;-72
2022/01/02 04:04:23;;;;;;;56.92;35.38;;;;;;;8.44;100.00;99682.19;2086224;28;20226;-69
2022/01/02 04:05:25;;;;;;;59.92;34.47;;;;;;;8.44;100.00;99678.75;2079472;28;20219;-69
2022/01/02 04:06:29;;;;;;;60.88;36.25;;;;;;;8.45;100.00;99681.13;2087901;28;20947;-69
2022/01/02 04:07:32;;;;;;;61.35;35.58;;;;;;;8.44;100.00;99679.53;2080039;28;20238;-69
2022/01/02 04:08:33;;;;;;;65.47;37.13;;;;;;;8.49;100.00;99673.41;2079739;28;20306;-69
2022/01/02 04:09:37;;;;;;;57.00;37.13;;;;;;;8.47;100.00;99676.34;2079678;28;20219;-69
2022/01/02 04:10:37;;;;;;;62.17;35.50;;;;;;;8.49;100.00;99668.88;2079309;28;20895;-69
2022/01/02 04:11:39;;;;;;;58.93;35.17;;;;;;;8.48;100.00;99666.50;2087845;28;20222;-69
2022/01/02 04:12:40;;;;;;;57.72;35.05;;;;;;;8.52;100.00;99666.78;2087886;28;20244;-69
2022/01/02 04:13:43;;;;;;;60.47;36.20;;;;;;;8.52;100.00;99666.78;2087777;28;20265;-69
2022/01/02 04:14:44;;;;;;;61.75;36.78;;;;;;;8.52;100.00;99662.25;2087693;28;20245;-69
2022/01/02 04:15:46;;;;;;;63.77;35.77;;;;;;;8.54;100.00;99664.66;2087936;28;20742;-70
2022/01/02 04:16:47;;;;;;;59.78;35.42;;;;;;;8.50;100.00;99659.03;2088060;28;20327;-69
2022/01/02 04:17:48;;;;;;;63.67;38.00;;;;;;;8.50;100.00;99667.81;2087889;28;20276;-69
2022/01/02 04:18:50;;;;;;;57.08;35.85;;;;;;;8.50;100.00;99673.13;2087565;28;20218;-69
2022/01/02 04:19:54;;;;;;;61.05;36.30;;;;;;;8.49;100.00;99668.09;2087734;28;20230;-69
2022/01/02 04:20:55;;;;;;;63.63;36.08;;;;;;;8.47;100.00;99660.38;2087519;28;20241;-69
2022/01/02 04:21:57;;;;;;;56.53;34.27;;;;;;;8.48;100.00;99663.84;2079569;28;20226;-69
2022/01/02 04:22:59;;;;;;;56.90;36.10;;;;;;;8.46;100.00;99661.44;2079595;28;20662;-69
2022/01/02 04:24:00;;;;;;;61.25;36.65;;;;;;;8.44;100.00;99663.59;2079880;28;20369;-69
2022/01/02 04:25:06;;;;;;;61.58;36.78;;;;;;;8.46;100.00;99648.16;2079660;28;20219;-70
2022/01/02 04:26:07;;;;;;;61.95;36.60;;;;;;;8.47;100.00;99659.59;2087580;28;20231;-73
2022/01/02 04:27:08;;;;;;;58.78;35.78;;;;;;;8.48;100.00;99656.66;2087636;28;20234;-69
2022/01/02 04:28:10;;;;;;;62.23;37.43;;;;;;;8.47;100.00;99663.03;2079412;28;20318;-70
2022/01/02 04:29:11;;;;;;;61.80;35.40;;;;;;;8.46;100.00;99661.44;2087857;28;20227;-70
2022/01/02 04:30:14;;;;;;;67.82;37.10;;;;;;;8.44;100.00;99668.09;2088401;28;20227;-71
2022/01/02 04:31:16;;;;;;;61.67;36.70;;;;;;;8.44;100.00;99660.13;2087569;28;20238;-70
2022/01/02 04:32:19;;;;;;;61.10;36.30;;;;;;;8.46;100.00;99671.28;2087695;28;20219;-69
2022/01/02 04:33:20;;;;;;;61.45;36.22;;;;;;;8.42;100.00;99672.88;2079518;28;20227;-69
2022/01/02 04:34:25;;;;;;;55.42;34.50;;;;;;;8.43;100.00;99664.66;2079315;28;20303;-69
2022/01/02 04:35:26;;;;;;;59.45;34.45;;;;;;;8.41;100.00;99669.41;2079466;28;20678;-69
2022/01/02 04:36:28;;;;;;;62.55;38.63;;;;;;;8.42;100.00;99663.03;2079259;28;20231;-71
2022/01/02 04:37:29;;;;;;;60.40;35.03;;;;;;;8.40;100.00;99657.19;2079548;28;20223;-69
2022/01/02 04:38:31;;;;;;;71.63;39.20;;;;;;;8.38;100.00;99654.00;2079458;28;20227;-69
2022/01/02 04:39:33;;;;;;;68.82;39.03;;;;;;;8.37;100.00;99656.94;2087769;28;20218;-69
2022/01/02 04:40:38;;;;;;;59.47;36.15;;;;;;;8.37;100.00;99648.97;2087717;28;20226;-69
2022/01/02 04:41:41;;;;;;;69.93;37.35;;;;;;;8.39;100.00;99641.50;2087345;28;20223;-69
2022/01/02 04:42:43;;;;;;;59.67;36.88;;;;;;;8.40;100.00;99638.56;2087344;28;20234;-70
2022/01/02 04:43:43;;;;;;;62.38;37.17;;;;;;;8.42;100.00;99631.13;2087543;28;20225;-69
2022/01/02 04:44:46;;;;;;;58.17;36.38;;;;;;;8.43;100.00;99627.44;2079480;28;20219;-70
2022/01/02 04:45:49;;;;;;;58.47;36.15;;;;;;;8.42;100.00;99620.50;2079811;28;20215;-69
2022/01/02 04:46:51;;;;;;;55.85;34.78;;;;;;;8.40;100.00;99617.31;2087583;28;20777;-69
2022/01/02 04:47:52;;;;;;;59.17;34.80;;;;;;;8.38;100.00;99610.66;2079002;28;20254;-69
2022/01/02 04:48:56;;;;;;;61.75;35.53;;;;;;;8.40;100.00;99613.84;2079539;28;20694;-69
2022/01/02 04:49:59;;;;;;;58.63;36.17;;;;;;;8.35;100.00;99614.66;2079536;28;20223;-69
2022/01/02 04:51:00;;;;;;;60.45;34.55;;;;;;;8.35;100.00;99614.66;2079330;28;20219;-69
2022/01/02 04:52:04;;;;;;;58.70;35.63;;;;;;;8.38;100.00;99616.00;2087657;28;20306;-70
2022/01/02 04:53:05;;;;;;;64.25;35.80;;;;;;;8.37;100.00;99617.84;2087637;28;20215;-69
2022/01/02 04:54:07;;;;;;;61.33;33.77;;;;;;;8.37;100.00;99619.72;2079199;28;20230;-69